createdAt,value
2023-02-19T00:03:56.548Z,43.4
2023-02-19T00:09:14.740Z,44.1
2023-02-19T00:14:33.233Z,44
2023-02-19T00:19:51.473Z,44.1
2023-02-19T00:25:10.228Z,43.4
2023-02-19T00:30:28.776Z,43.6
2023-02-19T00:35:47.282Z,44
2023-02-19T00:41:05.773Z,43.9
2023-02-19T00:46:24.598Z,43.6
2023-02-19T00:51:43.120Z,43.7
2023-02-19T00:57:01.305Z,43.6
2023-02-19T01:02:19.525Z,43.7
2023-02-19T01:07:37.759Z,45.2
2023-02-19T01:12:56.273Z,44.1
2023-02-19T01:18:15.032Z,44.5
2023-02-19T01:23:33.068Z,44.5
2023-02-19T01:28:51.823Z,44.6
2023-02-19T01:34:10.325Z,44.3
2023-02-19T01:39:28.882Z,44
2023-02-19T01:44:47.471Z,44.6
2023-02-19T01:50:05.669Z,44.5
2023-02-19T01:55:23.794Z,44.2
2023-02-19T02:00:42.054Z,45.1
2023-02-19T02:06:00.258Z,44.6
2023-02-19T02:11:19.186Z,44.1
2023-02-19T02:16:37.364Z,44.7
2023-02-19T02:21:55.599Z,44.6
2023-02-19T02:27:13.610Z,44.8
2023-02-19T02:32:32.342Z,44.5
2023-02-19T02:37:50.590Z,44.7
2023-02-19T02:43:09.344Z,45.4
2023-02-19T02:48:27.559Z,45.3
2023-02-19T02:53:45.765Z,45.4
2023-02-19T02:59:03.990Z,45.7
2023-02-19T03:04:22.363Z,44.9
2023-02-19T03:09:40.924Z,45.1
2023-02-19T03:14:59.450Z,44.9
2023-02-19T03:20:17.937Z,46
2023-02-19T03:25:36.130Z,46.2
2023-02-19T03:30:54.354Z,46
2023-02-19T03:36:13.100Z,44.9
2023-02-19T03:41:31.317Z,45.7
2023-02-19T03:46:50.098Z,45.5
2023-02-19T03:52:08.882Z,46.4
2023-02-19T03:57:27.352Z,45.6
2023-02-19T04:02:46.146Z,46.1
2023-02-19T04:08:04.640Z,45.7
2023-02-19T04:13:23.112Z,46
2023-02-19T04:18:41.593Z,45
2023-02-19T04:23:59.834Z,45.4
2023-02-19T04:29:08.224Z,45.8
2023-02-19T04:34:26.157Z,46.3
2023-02-19T04:39:44.626Z,45.7
2023-02-19T04:45:02.854Z,46
2023-02-19T04:50:21.318Z,46.5
2023-02-19T04:55:30.041Z,45.9
2023-02-19T05:00:48.816Z,45.8
2023-02-19T05:06:07.031Z,45.9
2023-02-19T05:11:25.799Z,46.2
2023-02-19T05:16:44.595Z,46.4
2023-02-19T05:22:03.362Z,46.8
2023-02-19T05:27:22.129Z,46.6
2023-02-19T05:32:41.245Z,46.7
2023-02-19T05:37:59.730Z,45.7
2023-02-19T05:43:18.686Z,46
2023-02-19T05:48:37.340Z,46.1
2023-02-19T05:53:56.607Z,46.8
2023-02-19T05:59:14.869Z,46.9
2023-02-19T06:04:32.800Z,46.6
2023-02-19T06:09:51.049Z,46
2023-02-19T06:15:09.257Z,47
2023-02-19T06:20:28.025Z,47.2
2023-02-19T06:25:46.497Z,46.8
2023-02-19T06:31:05.370Z,46.1
2023-02-19T06:36:23.858Z,46.4
2023-02-19T06:41:42.077Z,46
2023-02-19T06:47:00.571Z,46.5
2023-02-19T06:52:19.247Z,46.4
2023-02-19T06:57:38.004Z,45.7
2023-02-19T07:02:56.781Z,46.2
2023-02-19T07:08:15.550Z,45.7
2023-02-19T07:13:34.028Z,45.2
2023-02-19T07:18:52.225Z,46.2
2023-02-19T07:24:10.436Z,45.6
2023-02-19T07:29:29.217Z,46
2023-02-19T07:34:47.984Z,46
2023-02-19T07:40:06.480Z,45.9
2023-02-19T07:45:24.739Z,45.1
2023-02-19T07:50:42.956Z,44.8
2023-02-19T07:56:01.443Z,45.4
2023-02-19T08:01:19.914Z,43.8
2023-02-19T08:06:38.379Z,43.8
2023-02-19T08:11:56.696Z,43.4
2023-02-19T08:17:15.165Z,43.1
2023-02-19T08:22:33.711Z,42.6
2023-02-19T08:27:54.383Z,41.8
2023-02-19T08:33:13.156Z,42
2023-02-19T08:38:32.186Z,42.2
2023-02-19T08:43:50.638Z,41.2
2023-02-19T08:49:09.396Z,41.9
2023-02-19T08:54:28.217Z,41.5
2023-02-19T08:59:46.839Z,41
2023-02-19T09:05:05.038Z,40.4
2023-02-19T09:10:23.956Z,41.5
2023-02-19T09:15:42.108Z,41.3
2023-02-19T09:21:00.312Z,41.1
2023-02-19T09:26:19.084Z,41.5
2023-02-19T09:31:43.267Z,40.7
2023-02-19T09:37:01.557Z,40.7
2023-02-19T09:42:19.873Z,40.9
2023-02-19T09:47:38.533Z,39.6
2023-02-19T09:52:57.576Z,39.9
2023-02-19T09:58:16.208Z,40.1
2023-02-19T10:03:34.721Z,39.8
2023-02-19T10:08:53.162Z,38.6
2023-02-19T10:14:11.380Z,39.1
2023-02-19T10:19:29.576Z,38.2
2023-02-19T10:24:48.328Z,38.4
2023-02-19T10:30:06.863Z,37
2023-02-19T10:35:25.220Z,33.3
2023-02-19T10:40:43.452Z,32.6
2023-02-19T10:46:02.824Z,31.3
2023-02-19T10:51:21.405Z,33.2
2023-02-19T10:56:39.589Z,34.9
2023-02-19T11:01:58.207Z,34.2
2023-02-19T11:07:16.824Z,33.4
2023-02-19T11:12:38.255Z,35.4
2023-02-19T11:17:56.988Z,34.4
2023-02-19T11:23:16.223Z,34.4
2023-02-19T11:28:34.698Z,34.7
2023-02-19T11:33:53.265Z,34.9
2023-02-19T11:39:14.540Z,31.9
2023-02-19T11:44:41.940Z,34.9
2023-02-19T11:50:00.202Z,34.5
2023-02-19T11:55:02.756Z,32.9
2023-02-19T12:00:21.215Z,33.9
2023-02-19T12:05:39.489Z,34.2
2023-02-19T12:10:58.080Z,34.5
2023-02-19T12:16:16.519Z,33.9
2023-02-19T12:21:34.988Z,33.7
2023-02-19T12:26:53.773Z,34.5
2023-02-19T12:32:12.389Z,35
2023-02-19T12:37:30.673Z,34.5
2023-02-19T12:42:51.695Z,33.9
2023-02-19T12:48:10.149Z,34.4
2023-02-19T12:53:28.909Z,35.2
2023-02-19T12:58:47.390Z,34.8
2023-02-19T13:04:05.910Z,35.8
2023-02-19T13:09:24.702Z,36.2
2023-02-19T13:14:33.100Z,35.4
2023-02-19T13:19:51.876Z,36.4
2023-02-19T13:25:10.653Z,36.9
2023-02-19T13:30:29.113Z,36.9
2023-02-19T13:35:47.600Z,37.5
2023-02-19T13:41:06.160Z,37.1
2023-02-19T13:46:24.916Z,37.4
2023-02-19T13:51:43.255Z,38.3
2023-02-19T13:57:01.998Z,38.8
2023-02-19T14:02:20.719Z,39.3
2023-02-19T14:07:38.933Z,38.2
2023-02-19T14:12:58.213Z,38.5
2023-02-19T14:18:16.333Z,39.3
2023-02-19T14:23:34.318Z,39.4
2023-02-19T14:28:52.515Z,35.9
2023-02-19T14:34:11.048Z,34.6
2023-02-19T14:39:29.580Z,36.5
2023-02-19T14:44:47.773Z,37.3
2023-02-19T14:50:05.925Z,37.2
2023-02-19T14:55:24.654Z,38
2023-02-19T15:00:42.835Z,38.1
2023-02-19T15:06:00.763Z,38.9
2023-02-19T15:11:19.595Z,38.5
2023-02-19T15:16:38.185Z,39.1
2023-02-19T15:21:56.805Z,39.6
2023-02-19T17:51:31.791Z,42.6
2023-02-19T17:56:50.269Z,41.9
2023-02-19T18:01:54.226Z,42.3
2023-02-19T18:07:12.431Z,41.6
2023-02-19T18:12:32.969Z,41.6
2023-02-19T18:17:51.821Z,42.8
2023-02-19T18:23:10.009Z,41.8
2023-02-19T18:28:29.050Z,42
2023-02-19T18:33:47.798Z,41.9
2023-02-19T18:39:06.149Z,41.4
2023-02-19T18:44:24.835Z,41.7
2023-02-19T18:55:14.048Z,41.6
2023-02-19T19:06:49.575Z,42.9
2023-02-19T19:22:55.611Z,44.3
2023-02-19T19:28:14.725Z,43.1
2023-02-19T19:33:40.300Z,43.9
2023-02-19T19:44:50.746Z,43.4
2023-02-19T19:50:46.693Z,43.9
2023-02-19T19:56:05.841Z,43.6
2023-02-19T20:01:25.585Z,44
2023-02-19T20:06:31.097Z,43.4
2023-02-19T20:11:50.485Z,43.8
2023-02-19T20:17:14.463Z,42.3
2023-02-19T20:22:37.407Z,41.8
2023-02-19T20:27:56.236Z,41.7
2023-02-19T20:33:19.989Z,42.1
2023-02-19T20:38:40.033Z,42.2
2023-02-19T20:43:59.923Z,42.3
2023-02-19T20:49:18.513Z,42.4
2023-02-19T20:54:36.936Z,42.8
2023-02-19T20:59:55.692Z,42.5
2023-02-19T21:05:17.004Z,43.2
2023-02-19T21:10:35.546Z,42.7
2023-02-19T21:15:54.346Z,42.7
2023-02-19T21:21:12.906Z,42.7
2023-02-19T21:26:31.412Z,43
2023-02-19T21:31:50.689Z,43.8
2023-02-19T21:37:09.243Z,43.6
2023-02-19T21:42:28.013Z,42.9
2023-02-19T21:47:45.943Z,43.3
2023-02-19T21:53:03.873Z,43.2
2023-02-19T21:58:22.440Z,42.7
2023-02-19T22:03:40.924Z,43.8
2023-02-19T22:08:58.849Z,43
2023-02-19T22:14:17.670Z,43.7
2023-02-19T22:19:35.609Z,43.8
2023-02-19T22:24:54.097Z,43.3
2023-02-19T22:30:12.487Z,43.7
2023-02-19T22:35:31.445Z,43.3
2023-02-19T22:40:34.311Z,43.1
2023-02-19T22:45:52.936Z,43.1
2023-02-19T22:51:11.162Z,43.5
2023-02-19T22:56:29.653Z,43.4
2023-02-19T23:01:48.471Z,43.7
2023-02-19T23:12:37.727Z,44.7
2023-02-19T23:17:56.237Z,44.6
2023-02-19T23:28:44.316Z,45
2023-02-19T23:34:02.512Z,44.2
2023-02-19T23:39:21.071Z,44.7
2023-02-19T23:44:39.547Z,45.7
2023-02-19T23:49:58.312Z,45
2023-02-19T23:55:16.820Z,45.7
